createdAt,value
2023-03-27T02:31:32.801Z,2.35
2023-03-27T02:34:26.049Z,2.00
2023-03-27T02:37:17.580Z,1.88
2023-03-27T02:39:59.764Z,1.48
2023-03-27T02:43:04.213Z,1.27
2023-03-27T02:45:51.654Z,2.85
2023-03-27T02:48:43.290Z,1.40
2023-03-27T02:51:30.781Z,1.45
2023-03-27T02:54:08.323Z,1.08
2023-03-27T02:56:43.602Z,1.30
2023-03-27T02:59:28.710Z,1.23
2023-03-27T03:01:55.700Z,1.42
2023-03-27T03:04:31.098Z,1.60
2023-03-27T03:06:59.118Z,1.38
2023-03-27T03:09:27.367Z,1.42
2023-03-27T03:11:54.624Z,1.55
2023-03-27T03:24:35.751Z,1.80
2023-03-27T03:27:05.795Z,1.88
2023-03-27T03:29:35.554Z,1.80
2023-03-27T03:32:03.200Z,2.58
2023-03-27T03:41:50.931Z,2.78
2023-03-27T03:44:17.940Z,3.00
2023-03-27T03:46:44.783Z,2.80
2023-03-27T03:49:11.594Z,3.20
2023-03-27T03:51:38.487Z,3.42
2023-03-27T03:54:06.739Z,3.75
2023-03-27T03:56:34.532Z,2.65
2023-03-27T03:59:01.655Z,2.03
2023-03-27T04:01:28.749Z,2.40
2023-03-27T04:03:56.397Z,2.30
2023-03-27T04:06:26.080Z,1.73
2023-03-27T04:08:53.490Z,1.33
2023-03-27T04:11:20.663Z,1.27
2023-03-27T04:13:47.488Z,1.33
2023-03-27T04:16:14.884Z,1.38
2023-03-27T04:18:42.568Z,1.67
2023-03-27T04:21:14.593Z,0.90
2023-03-27T04:23:42.709Z,0.95
2023-03-27T04:26:12.288Z,1.17
2023-03-27T04:28:40.132Z,1.13
2023-03-27T04:31:10.405Z,0.80
2023-03-27T04:33:39.883Z,0.30
2023-03-27T04:36:08.488Z,0.43
2023-03-27T04:38:37.078Z,0.43
2023-03-27T04:41:05.147Z,0.20
2023-03-27T04:43:32.188Z,0.20
2023-03-27T04:48:26.670Z,0.22
2023-03-27T04:55:51.167Z,0.20
2023-03-27T04:58:19.104Z,0.13
2023-03-27T05:00:50.291Z,0.17
2023-03-27T05:03:20.865Z,0.30
2023-03-27T05:05:49.694Z,0.10
2023-03-27T05:08:17.296Z,0.30
2023-03-27T05:10:44.926Z,0.40
2023-03-27T05:13:12.336Z,0.20
2023-03-27T05:15:39.358Z,0.22
2023-03-27T05:18:07.497Z,0.25
2023-03-27T05:20:35.349Z,0.35
2023-03-27T05:23:02.528Z,0.20
2023-03-27T05:25:30.954Z,0.25
2023-03-27T05:27:58.128Z,0.38
2023-03-27T05:30:26.870Z,0.32
2023-03-27T05:32:54.195Z,0.13
2023-03-27T05:35:23.889Z,0.22
2023-03-27T05:37:54.023Z,0.22
2023-03-27T05:40:25.014Z,0.20
2023-03-27T05:42:53.309Z,0.40
2023-03-27T05:45:21.181Z,0.38
2023-03-27T05:47:50.658Z,0.20
2023-03-27T05:50:20.087Z,0.40
2023-03-27T05:52:47.749Z,0.43
2023-03-27T05:55:15.192Z,0.43
2023-03-27T05:57:42.532Z,0.47
2023-03-27T06:00:13.987Z,0.40
2023-03-27T06:02:43.389Z,0.43
2023-03-27T06:05:13.457Z,0.43
2023-03-27T06:27:35.939Z,0.40
2023-03-27T06:30:02.812Z,0.85
2023-03-27T06:32:29.643Z,0.40
2023-03-27T06:34:56.517Z,0.55
2023-03-27T06:37:25.121Z,0.63
2023-03-27T06:49:39.797Z,0.30
2023-03-27T12:08:52.607Z,0.20
2023-03-27T13:06:23.819Z,0.10
2023-03-27T13:09:14.776Z,0.45
2023-03-27T13:12:04.888Z,0.38
2023-03-27T13:14:46.677Z,0.40
2023-03-27T13:17:42.132Z,0.32
2023-03-27T13:20:25.835Z,0.22
2023-03-27T13:43:58.096Z,0.10
2023-03-27T13:46:29.406Z,0.40
2023-03-27T13:49:21.109Z,0.45
2023-03-27T13:52:24.592Z,0.47
2023-03-27T13:55:04.291Z,0.40
2023-03-27T13:57:36.753Z,0.40
2023-03-27T14:00:18.351Z,0.30
2023-03-27T14:03:10.063Z,0.70
2023-03-27T14:06:13.194Z,0.50
2023-03-27T14:08:55.415Z,0.40
2023-03-27T14:11:37.844Z,0.52
2023-03-27T14:14:32.754Z,0.82
2023-03-27T14:17:14.513Z,0.30
2023-03-27T14:19:47.105Z,0.30
2023-03-27T14:22:32.274Z,0.35
2023-03-27T14:25:09.813Z,0.40
2023-03-27T14:27:36.795Z,0.50
2023-03-27T14:30:15.657Z,0.43
2023-03-27T14:32:44.634Z,0.60
2023-03-27T14:35:23.977Z,0.60
2023-03-27T14:38:23.346Z,0.50
2023-03-27T14:40:52.409Z,0.50
2023-03-27T14:43:21.234Z,0.25
2023-03-27T14:45:51.674Z,0.40
2023-03-27T14:48:38.921Z,0.50
2023-03-27T14:51:14.617Z,0.70
2023-03-27T15:18:58.707Z,0.20
2023-03-27T15:21:49.485Z,0.45
2023-03-27T15:24:44.135Z,0.55
2023-03-27T15:27:20.109Z,0.40
2023-03-27T15:29:58.554Z,0.43
2023-03-27T15:32:30.286Z,0.30
2023-03-27T15:35:03.352Z,0.40
2023-03-27T15:37:33.177Z,0.57
2023-03-27T15:40:58.648Z,0.70
2023-03-27T15:43:29.196Z,0.60
2023-03-27T15:46:07.658Z,0.50
2023-03-27T15:48:40.777Z,0.60
2023-03-27T15:51:20.529Z,0.57
2023-03-27T15:53:53.718Z,0.70
2023-03-27T15:56:28.450Z,0.35
2023-03-27T15:59:04.885Z,0.57
2023-03-27T16:01:37.290Z,0.98
2023-03-27T16:04:27.917Z,1.50
2023-03-27T16:07:06.282Z,0.73
2023-03-27T16:10:05.292Z,0.50
2023-03-27T16:12:48.362Z,0.50
2023-03-27T16:15:56.118Z,0.60
2023-03-27T16:18:28.909Z,0.73
2023-03-27T16:21:06.869Z,0.52
2023-03-27T18:31:22.072Z,0.30
2023-03-27T18:36:16.103Z,0.32
2023-03-27T18:38:43.146Z,0.50
2023-03-27T18:41:10.565Z,0.40
2023-03-27T18:43:38.510Z,0.88
2023-03-27T18:46:07.186Z,0.52
2023-03-27T18:48:34.301Z,0.80
2023-03-27T18:51:05.022Z,0.40
2023-03-27T18:53:31.986Z,0.52
2023-03-27T18:55:59.650Z,0.45
2023-03-27T18:58:28.170Z,0.70
2023-03-27T19:00:58.317Z,0.55
2023-03-27T19:03:30.362Z,0.32
2023-03-27T19:06:01.752Z,0.22
2023-03-27T19:08:28.797Z,0.50
2023-03-27T19:10:57.346Z,0.35
2023-03-27T19:13:25.469Z,0.50
2023-03-27T19:15:52.706Z,0.38
2023-03-27T19:18:19.644Z,0.50
2023-03-27T19:20:46.868Z,0.45
2023-03-27T19:23:14.333Z,0.30
2023-03-27T19:25:41.265Z,0.63
2023-03-27T19:28:08.100Z,0.43
2023-03-27T19:30:35.397Z,0.43
2023-03-27T19:33:02.466Z,0.77
2023-03-27T19:35:29.379Z,0.73
2023-03-27T19:37:56.219Z,0.40
2023-03-27T19:40:23.620Z,0.63
2023-03-27T19:42:50.926Z,0.60
2023-03-27T19:45:19.081Z,0.60
2023-03-27T19:47:47.765Z,0.50
2023-03-27T19:50:16.058Z,0.50
2023-03-27T19:52:49.404Z,0.45
2023-03-27T19:55:25.431Z,0.50
2023-03-27T19:57:54.851Z,0.68
2023-03-27T20:00:21.847Z,0.40
2023-03-27T20:02:48.737Z,0.70
2023-03-27T20:05:15.684Z,0.75
2023-03-27T20:07:42.544Z,0.60
2023-03-27T20:10:09.998Z,0.70
2023-03-27T20:12:36.837Z,0.50
2023-03-27T20:15:11.900Z,0.50
2023-03-27T20:17:39.635Z,0.90
2023-03-27T20:20:08.728Z,0.70
2023-03-27T20:22:43.192Z,0.77
2023-03-27T20:25:18.780Z,0.75
2023-03-27T20:27:46.030Z,0.90
2023-03-27T20:30:14.677Z,1.02
2023-03-27T20:32:42.025Z,0.65
2023-03-27T20:35:20.466Z,0.85
2023-03-27T20:37:56.459Z,0.57
2023-03-27T20:40:25.030Z,0.50
2023-03-27T20:43:02.922Z,0.90
2023-03-27T20:45:31.135Z,0.70
2023-03-27T20:48:03.229Z,0.93
2023-03-27T20:50:31.754Z,0.63
2023-03-27T20:52:58.640Z,0.80
2023-03-27T20:55:33.684Z,0.60
2023-03-27T20:58:06.461Z,0.70
2023-03-27T21:00:37.411Z,0.50
2023-03-27T21:03:05.944Z,0.65
2023-03-27T21:05:34.643Z,0.73
2023-03-27T21:08:01.521Z,0.73
2023-03-27T21:10:28.469Z,0.50
2023-03-27T21:12:56.681Z,0.65
2023-03-27T21:15:23.920Z,0.73
2023-03-27T21:17:51.127Z,0.85
2023-03-27T21:20:18.531Z,0.75
2023-03-27T21:22:46.215Z,0.90
2023-03-27T21:25:13.070Z,0.93
2023-03-27T21:27:39.911Z,1.08
2023-03-27T21:30:07.823Z,1.85
2023-03-27T21:32:34.637Z,0.98
2023-03-27T21:35:01.516Z,1.10
2023-03-27T21:37:28.514Z,1.98
2023-03-27T21:39:55.912Z,1.67
2023-03-27T21:42:22.908Z,2.08
2023-03-27T21:44:53.710Z,2.47
2023-03-27T21:47:22.061Z,2.05
2023-03-27T21:49:48.974Z,1.45
2023-03-27T21:52:15.800Z,1.75
2023-03-27T21:54:50.025Z,1.88
2023-03-27T21:57:27.126Z,1.70
2023-03-27T21:59:53.982Z,1.20
2023-03-27T22:02:22.068Z,2.03
2023-03-27T22:04:49.083Z,1.70
2023-03-27T22:07:16.085Z,1.75
2023-03-27T22:09:45.954Z,1.60
2023-03-27T22:12:13.402Z,1.40
2023-03-27T22:14:40.415Z,1.77
2023-03-27T22:17:07.545Z,1.48
2023-03-27T22:19:34.413Z,1.42
2023-03-27T22:22:01.505Z,1.63
2023-03-27T22:24:28.859Z,1.02
2023-03-27T22:26:56.986Z,1.63
2023-03-27T22:29:23.914Z,1.83
2023-03-27T22:31:50.885Z,2.30
2023-03-27T22:34:18.007Z,2.03
2023-03-27T22:36:45.008Z,1.25
2023-03-27T22:39:11.810Z,1.02
2023-03-27T22:41:38.766Z,1.00
2023-03-27T22:44:05.824Z,0.65
2023-03-27T22:46:33.716Z,0.77
2023-03-27T22:49:00.776Z,0.80
2023-03-27T22:51:28.955Z,0.55
2023-03-27T22:53:55.911Z,0.75
2023-03-27T22:56:23.017Z,0.95
2023-03-27T22:58:49.913Z,0.88
2023-03-27T23:01:16.788Z,1.02
2023-03-27T23:03:43.783Z,0.82
2023-03-27T23:06:18.266Z,0.88
2023-03-27T23:08:45.365Z,0.88
2023-03-27T23:11:13.866Z,0.85
2023-03-27T23:13:41.114Z,0.85
2023-03-27T23:16:09.275Z,0.77
2023-03-27T23:18:36.720Z,0.52
2023-03-27T23:21:06.754Z,0.80
2023-03-27T23:23:36.982Z,0.82
2023-03-27T23:26:05.452Z,0.40
2023-03-27T23:28:38.157Z,0.80
2023-03-27T23:31:07.586Z,1.05
2023-03-27T23:33:38.816Z,1.10
2023-03-27T23:36:11.361Z,1.10
2023-03-27T23:38:40.413Z,1.38
2023-03-27T23:41:08.654Z,1.23
2023-03-27T23:43:36.379Z,1.10
2023-03-27T23:46:05.571Z,1.10
2023-03-27T23:48:32.464Z,0.85
2023-03-27T23:50:59.332Z,0.80
2023-03-27T23:53:28.238Z,0.57
2023-03-27T23:55:56.752Z,0.70
2023-03-27T23:58:28.510Z,0.73
